Time;durP1;ratioP1;P1;durP2;ratioP2;P2;SDS_P1;SDS_P2;PMS_P1;PMS_P2;Temp;Humidity;BMP_temperature;BMP_pressure;BME280_temperature;BME280_humidity;BME280_pressure;Samples;Min_cycle;Max_cycle;Signal;HPM_P1;HPM_P2
2021/04/25 00:00:39;;;;;;;5.80;3.70;;;7.50;50.70;;;;;;5080819;28;20025;-64
2021/04/25 00:03:05;;;;;;;4.63;3.40;;;7.50;50.80;;;;;;5081569;28;20051;-65
2021/04/25 00:05:30;;;;;;;5.97;3.80;;;7.50;50.80;;;;;;5063606;28;20118;-65
2021/04/25 00:07:56;;;;;;;8.10;3.58;;;7.50;50.90;;;;;;5088172;28;20738;-64
2021/04/25 00:10:22;;;;;;;5.85;3.97;;;7.40;51.00;;;;;;5088957;28;20073;-65
2021/04/25 00:12:49;;;;;;;7.07;3.58;;;7.40;51.00;;;;;;5085443;28;20028;-65
2021/04/25 00:15:21;;;;;;;7.50;4.30;;;7.40;51.20;;;;;;5085797;28;20024;-65
2021/04/25 00:17:47;;;;;;;7.80;4.70;;;7.40;51.00;;;;;;5086768;28;20379;-65
2021/04/25 00:20:14;;;;;;;6.03;3.83;;;7.40;51.00;;;;;;5078459;28;20020;-65
2021/04/25 00:22:41;;;;;;;5.60;3.80;;;7.40;51.30;;;;;;5080346;28;20431;-65
2021/04/25 00:25:08;;;;;;;5.60;3.28;;;7.40;51.30;;;;;;5085985;28;20031;-65
2021/04/25 00:27:34;;;;;;;6.28;3.67;;;7.40;51.40;;;;;;5074987;28;20032;-65
2021/04/25 00:29:59;;;;;;;6.07;3.65;;;7.40;51.50;;;;;;5083616;28;20416;-65
2021/04/25 00:32:26;;;;;;;5.25;3.75;;;7.40;51.40;;;;;;5091804;28;20030;-64
2021/04/25 00:34:52;;;;;;;5.50;3.67;;;7.50;51.60;;;;;;5092419;28;20016;-65
2021/04/25 00:37:17;;;;;;;6.20;3.97;;;7.50;51.60;;;;;;5092240;28;20016;-65
2021/04/25 00:39:45;;;;;;;5.05;3.50;;;7.50;51.50;;;;;;5090837;28;20028;-64
2021/04/25 00:42:12;;;;;;;4.40;3.42;;;7.50;51.60;;;;;;5082634;28;20047;-64
2021/04/25 00:44:37;;;;;;;3.80;3.13;;;7.50;51.40;;;;;;5092311;28;20392;-64
2021/04/25 00:47:03;;;;;;;6.43;3.80;;;7.50;51.70;;;;;;5092033;28;20020;-64
2021/04/25 00:49:29;;;;;;;5.22;3.17;;;7.50;52.10;;;;;;5090107;28;20040;-65
2021/04/25 00:51:55;;;;;;;6.60;4.00;;;7.40;51.70;;;;;;5087221;28;20077;-65
2021/04/25 00:54:20;;;;;;;4.72;3.40;;;7.40;52.00;;;;;;5085803;28;20028;-65
2021/04/25 00:56:46;;;;;;;6.28;3.80;;;7.30;51.90;;;;;;5078793;28;20025;-65
2021/04/25 00:59:12;;;;;;;4.60;3.25;;;7.30;52.00;;;;;;5083234;28;20017;-65
2021/04/25 01:01:37;;;;;;;4.63;3.38;;;7.20;52.00;;;;;;5091790;28;20506;-65
2021/04/25 01:04:03;;;;;;;5.68;3.22;;;7.20;51.90;;;;;;5073289;28;20126;-64
2021/04/25 01:06:29;;;;;;;5.50;3.42;;;7.20;52.10;;;;;;5090514;28;20055;-65
2021/04/25 01:08:54;;;;;;;5.57;3.35;;;7.10;52.20;;;;;;5080230;28;20100;-64
2021/04/25 01:11:20;;;;;;;3.72;3.05;;;7.10;52.10;;;;;;5092293;28;20027;-64
2021/04/25 01:13:50;;;;;;;5.38;3.60;;;7.10;52.30;;;;;;5092172;28;20463;-64
2021/04/25 01:16:16;;;;;;;4.50;3.03;;;7.10;52.40;;;;;;5092355;28;20055;-64
2021/04/25 01:18:41;;;;;;;4.57;3.10;;;7.10;52.70;;;;;;5091332;28;20028;-64
2021/04/25 01:21:07;;;;;;;6.88;3.45;;;7.10;52.40;;;;;;5092328;28;20496;-64
2021/04/25 01:23:33;;;;;;;5.05;3.10;;;7.10;52.60;;;;;;5089917;28;20040;-65
2021/04/25 01:25:59;;;;;;;5.43;3.15;;;7.10;52.60;;;;;;5092157;28;20114;-64
2021/04/25 01:28:25;;;;;;;5.55;3.20;;;7.10;52.60;;;;;;5092739;28;20031;-65
2021/04/25 01:30:53;;;;;;;6.00;3.30;;;7.10;52.60;;;;;;5095796;28;20492;-65
2021/04/25 01:33:19;;;;;;;4.30;3.08;;;7.10;52.50;;;;;;5095981;28;20455;-65
2021/04/25 01:35:44;;;;;;;4.55;3.40;;;7.10;52.60;;;;;;5094767;28;20032;-65
2021/04/25 01:38:10;;;;;;;4.40;3.25;;;7.10;52.60;;;;;;5095506;28;20142;-65
2021/04/25 01:40:36;;;;;;;4.03;3.28;;;7.10;52.60;;;;;;5095837;28;20074;-65
2021/04/25 01:43:02;;;;;;;4.78;3.28;;;7.10;52.50;;;;;;5095487;28;20107;-65
2021/04/25 01:45:29;;;;;;;5.75;3.42;;;7.10;52.70;;;;;;5094592;28;20470;-65
2021/04/25 01:48:01;;;;;;;4.68;3.45;;;7.10;52.50;;;;;;5095324;28;20026;-64
2021/04/25 01:50:27;;;;;;;4.55;3.60;;;7.10;52.70;;;;;;5095322;28;20139;-65
2021/04/25 01:52:54;;;;;;;5.15;3.42;;;7.10;52.50;;;;;;5095476;28;20039;-64
2021/04/25 01:55:21;;;;;;;6.20;3.88;;;7.10;52.70;;;;;;5091402;28;20375;-64
2021/04/25 01:57:47;;;;;;;9.25;5.47;;;7.10;53.00;;;;;;5094307;28;20069;-64
2021/04/25 02:00:17;;;;;;;10.18;6.40;;;7.10;53.10;;;;;;5090766;28;20032;-65
2021/04/25 02:02:44;;;;;;;8.63;5.53;;;7.00;53.10;;;;;;5095026;28;20032;-65
2021/04/25 02:05:11;;;;;;;9.73;5.28;;;7.00;53.10;;;;;;5075656;28;20147;-64
2021/04/25 02:07:37;;;;;;;8.50;5.40;;;7.00;53.00;;;;;;5095103;28;20098;-64
2021/04/25 02:10:07;;;;;;;8.82;4.80;;;6.90;53.00;;;;;;5094898;28;20124;-65
2021/04/25 02:12:33;;;;;;;9.23;5.10;;;6.90;53.60;;;;;;5094762;28;20032;-65
2021/04/25 02:15:00;;;;;;;8.85;5.57;;;6.80;53.10;;;;;;5093859;28;20063;-64
2021/04/25 02:17:26;;;;;;;8.70;5.53;;;6.70;53.30;;;;;;5094962;28;20451;-65
2021/04/25 02:19:51;;;;;;;10.07;5.40;;;6.70;53.30;;;;;;5094748;28;20012;-64
2021/04/25 02:22:17;;;;;;;8.32;5.28;;;6.70;53.40;;;;;;5089975;28;20029;-65
2021/04/25 02:24:43;;;;;;;8.45;5.55;;;6.60;53.30;;;;;;5087658;28;20093;-65
2021/04/25 02:27:08;;;;;;;9.73;5.68;;;6.50;53.40;;;;;;5094765;28;20020;-65
2021/04/25 02:29:34;;;;;;;8.18;5.53;;;6.50;53.60;;;;;;5080129;28;20063;-64
2021/04/25 02:32:00;;;;;;;8.00;5.60;;;6.50;53.70;;;;;;5093971;28;20031;-65
2021/04/25 02:34:26;;;;;;;10.52;5.80;;;6.40;53.80;;;;;;5093470;28;20024;-65
2021/04/25 02:36:51;;;;;;;8.60;5.72;;;6.40;53.90;;;;;;5094658;28;20024;-65
2021/04/25 02:39:18;;;;;;;9.63;5.53;;;6.30;54.00;;;;;;5094165;28;20020;-65
2021/04/25 02:41:44;;;;;;;10.18;5.78;;;6.40;54.00;;;;;;5094421;28;20383;-65
2021/04/25 02:44:10;;;;;;;8.32;5.40;;;6.30;54.00;;;;;;5091345;28;20118;-65
2021/04/25 02:46:36;;;;;;;9.60;5.78;;;6.30;54.10;;;;;;5094296;28;20064;-65
2021/04/25 02:49:01;;;;;;;9.07;5.78;;;6.30;54.30;;;;;;5093831;28;20030;-65
2021/04/25 02:51:27;;;;;;;8.95;6.15;;;6.30;54.50;;;;;;5094259;28;20395;-65
2021/04/25 02:53:53;;;;;;;9.05;5.57;;;6.30;54.60;;;;;;5091583;28;20032;-65
2021/04/25 02:56:18;;;;;;;9.25;5.78;;;6.30;54.60;;;;;;5083251;28;20024;-64
2021/04/25 02:58:44;;;;;;;7.93;5.15;;;6.30;54.80;;;;;;5093552;28;20107;-64
2021/04/25 03:01:10;;;;;;;9.80;5.97;;;6.30;54.50;;;;;;5092326;28;20248;-64
2021/04/25 03:03:35;;;;;;;9.70;5.43;;;6.30;54.60;;;;;;5093151;28;20052;-64
2021/04/25 03:06:01;;;;;;;8.32;5.13;;;6.40;54.80;;;;;;5093883;28;20470;-64
2021/04/25 03:08:26;;;;;;;7.60;5.30;;;6.50;54.90;;;;;;5093929;28;20020;-64
2021/04/25 03:10:52;;;;;;;7.18;4.80;;;6.50;55.10;;;;;;5088329;28;20533;-64
2021/04/25 03:13:18;;;;;;;7.43;5.28;;;6.60;55.00;;;;;;5091349;28;20024;-64
2021/04/25 03:15:44;;;;;;;7.88;5.00;;;6.80;55.00;;;;;;5093861;28;20020;-64
2021/04/25 03:18:09;;;;;;;7.68;5.43;;;7.00;54.80;;;;;;5093865;28;20071;-64
2021/04/25 03:20:35;;;;;;;7.32;4.88;;;7.10;54.70;;;;;;5090829;28;20029;-64
2021/04/25 03:23:01;;;;;;;7.90;5.55;;;7.30;54.40;;;;;;5092249;28;20020;-64
2021/04/25 03:25:27;;;;;;;6.53;5.28;;;7.50;54.10;;;;;;5085880;28;20067;-64
2021/04/25 03:27:53;;;;;;;7.97;5.63;;;7.70;54.10;;;;;;5093609;28;20153;-64
2021/04/25 03:30:19;;;;;;;7.88;5.20;;;7.80;53.90;;;;;;5092821;28;20035;-64
2021/04/25 03:32:45;;;;;;;8.88;6.20;;;8.00;53.40;;;;;;5092731;28;20468;-64
2021/04/25 03:35:15;;;;;;;8.57;6.25;;;8.10;53.20;;;;;;5093491;28;20024;-64
2021/04/25 03:37:41;;;;;;;9.88;6.50;;;8.30;53.00;;;;;;5093329;28;20486;-64
2021/04/25 03:40:09;;;;;;;10.30;5.97;;;8.40;52.70;;;;;;5092160;28;20482;-64
2021/04/25 03:42:36;;;;;;;10.13;6.63;;;8.40;53.20;;;;;;5093339;28;20023;-64
2021/04/25 03:45:04;;;;;;;7.63;5.75;;;8.50;52.30;;;;;;5093257;28;20024;-64
2021/04/25 03:47:30;;;;;;;8.65;6.25;;;8.60;52.20;;;;;;5093218;28;20073;-64
2021/04/25 03:49:55;;;;;;;7.95;5.65;;;8.60;52.20;;;;;;5091340;28;20040;-64
2021/04/25 03:52:21;;;;;;;10.75;6.03;;;8.70;52.00;;;;;;5093070;28;20028;-64
2021/04/25 03:54:47;;;;;;;8.95;5.85;;;8.80;51.90;;;;;;5090023;28;20029;-65
2021/04/25 03:57:12;;;;;;;7.78;5.47;;;8.90;52.00;;;;;;5082624;28;20215;-64
2021/04/25 03:59:38;;;;;;;7.03;5.15;;;9.00;52.00;;;;;;5092990;28;20020;-64
2021/04/25 04:02:04;;;;;;;6.82;5.43;;;9.00;51.80;;;;;;5089577;28;20023;-64
2021/04/25 04:04:29;;;;;;;10.82;5.75;;;9.10;51.50;;;;;;5092481;28;20107;-64
2021/04/25 04:06:55;;;;;;;7.75;6.00;;;9.10;51.30;;;;;;5093024;28;20028;-65
2021/04/25 04:09:21;;;;;;;7.28;5.75;;;9.20;51.80;;;;;;5092950;28;20020;-64
2021/04/25 04:11:47;;;;;;;9.98;5.88;;;9.50;52.10;;;;;;5087789;28;20024;-64
2021/04/25 04:14:13;;;;;;;8.85;5.80;;;9.80;51.60;;;;;;5092761;28;20036;-65
2021/04/25 04:16:39;;;;;;;10.63;5.60;;;10.10;50.90;;;;;;5074967;28;20027;-65
2021/04/25 04:19:05;;;;;;;7.45;5.28;;;10.50;50.80;;;;;;5085974;28;20096;-65
2021/04/25 04:21:31;;;;;;;8.70;5.43;;;10.90;50.20;;;;;;5084964;28;20067;-65
2021/04/25 04:23:57;;;;;;;9.50;5.40;;;11.40;49.30;;;;;;5071087;28;20024;-65
2021/04/25 04:26:22;;;;;;;7.72;5.10;;;11.80;48.40;;;;;;5092775;28;20038;-65
2021/04/25 04:28:48;;;;;;;7.18;5.15;;;12.00;47.80;;;;;;5089013;28;20054;-65
2021/04/25 04:31:13;;;;;;;7.13;4.88;;;12.30;47.40;;;;;;5078257;28;20111;-65
2021/04/25 04:33:39;;;;;;;6.80;4.70;;;12.50;47.00;;;;;;5093013;28;20059;-65
2021/04/25 04:36:06;;;;;;;8.50;5.68;;;12.60;46.30;;;;;;5092671;28;20028;-65
2021/04/25 04:38:31;;;;;;;9.00;5.30;;;12.80;46.20;;;;;;5091759;28;20031;-65
2021/04/25 04:40:57;;;;;;;7.65;4.65;;;13.20;46.00;;;;;;5092974;28;20028;-65
2021/04/25 04:43:24;;;;;;;8.60;5.45;;;13.50;45.50;;;;;;5092955;28;20020;-65
2021/04/25 04:45:52;;;;;;;6.65;4.85;;;13.80;45.20;;;;;;5092530;28;20016;-64
2021/04/25 04:48:17;;;;;;;5.47;4.55;;;14.30;45.10;;;;;;5092776;28;20020;-65
2021/04/25 04:50:43;;;;;;;6.57;4.85;;;15.00;44.60;;;;;;5073974;28;20131;-65
2021/04/25 04:53:09;;;;;;;7.45;4.70;;;15.50;44.50;;;;;;5092456;28;20020;-65
2021/04/25 04:55:34;;;;;;;7.53;5.10;;;16.10;43.50;;;;;;5092501;28;20069;-65
2021/04/25 04:58:00;;;;;;;8.50;5.00;;;16.70;42.80;;;;;;5092851;28;20487;-63
2021/04/25 05:00:26;;;;;;;6.22;4.72;;;17.20;42.00;;;;;;5091696;28;20020;-63
2021/04/25 05:02:52;;;;;;;7.63;5.20;;;17.60;41.40;;;;;;5096547;28;20024;-63
2021/04/25 05:05:18;;;;;;;7.72;5.57;;;17.70;40.60;;;;;;5096546;28;20026;-66
2021/04/25 05:07:43;;;;;;;7.40;4.68;;;17.70;40.20;;;;;;5096624;28;20474;-66
2021/04/25 05:10:09;;;;;;;6.63;4.80;;;17.80;40.00;;;;;;5087118;28;20048;-65
2021/04/25 05:12:35;;;;;;;7.30;4.90;;;17.80;39.60;;;;;;5095837;28;20399;-66
2021/04/25 05:15:01;;;;;;;8.98;5.05;;;17.70;39.80;;;;;;5096441;28;20016;-65
2021/04/25 05:17:27;;;;;;;6.35;4.30;;;17.80;39.70;;;;;;5096383;28;20030;-63
2021/04/25 05:19:53;;;;;;;6.07;4.55;;;17.70;39.50;;;;;;5095045;28;20356;-63
2021/04/25 05:22:19;;;;;;;6.65;4.30;;;17.50;39.40;;;;;;5096204;28;20035;-63
2021/04/25 05:24:45;;;;;;;5.95;4.57;;;17.40;39.20;;;;;;5085633;28;20031;-62
2021/04/25 05:27:10;;;;;;;6.65;4.40;;;17.30;39.40;;;;;;5096161;28;20031;-62
2021/04/25 05:29:36;;;;;;;5.60;4.63;;;17.60;39.40;;;;;;5095148;28;20486;-62
2021/04/25 05:32:02;;;;;;;8.50;4.35;;;18.00;38.90;;;;;;5095976;28;20039;-63
2021/04/25 05:34:28;;;;;;;6.72;4.40;;;18.10;38.60;;;;;;5095923;28;20042;-63
2021/04/25 05:36:54;;;;;;;5.72;4.13;;;18.00;38.30;;;;;;5095930;28;20016;-63
2021/04/25 05:39:19;;;;;;;6.35;4.13;;;17.80;38.40;;;;;;5093521;28;20028;-63
2021/04/25 05:41:45;;;;;;;7.35;4.55;;;17.50;38.60;;;;;;5095792;28;20437;-65
2021/04/25 05:44:11;;;;;;;7.30;4.10;;;17.10;38.90;;;;;;5095577;28;20020;-65
2021/04/25 05:46:36;;;;;;;5.82;3.88;;;16.60;39.10;;;;;;5094745;28;20036;-65
2021/04/25 05:49:04;;;;;;;6.15;3.63;;;16.20;39.10;;;;;;5095353;28;20031;-65
2021/04/25 05:51:30;;;;;;;5.82;3.60;;;15.70;39.50;;;;;;5095566;28;20027;-64
2021/04/25 05:53:56;;;;;;;4.40;3.58;;;15.40;40.10;;;;;;5095471;28;20103;-65
2021/04/25 05:56:22;;;;;;;7.30;4.05;;;15.10;40.40;;;;;;5088765;28;20056;-65
2021/04/25 05:58:48;;;;;;;7.10;3.92;;;15.00;41.10;;;;;;5095484;28;20027;-65
2021/04/25 06:01:14;;;;;;;5.53;3.58;;;14.90;41.30;;;;;;5095323;28;20032;-65
2021/04/25 06:03:40;;;;;;;6.85;3.60;;;14.90;41.40;;;;;;5095281;28;20020;-65
2021/04/25 06:06:05;;;;;;;6.00;3.75;;;15.00;41.40;;;;;;5093958;28;20068;-65
2021/04/25 06:08:31;;;;;;;5.03;3.20;;;15.10;41.50;;;;;;5095262;28;20027;-65
2021/04/25 06:10:57;;;;;;;10.45;4.18;;;15.10;40.90;;;;;;5095127;28;20024;-65
2021/04/25 06:13:23;;;;;;;5.68;3.67;;;15.00;40.60;;;;;;5091925;28;20024;-65
2021/04/25 06:15:48;;;;;;;4.95;3.38;;;14.90;40.80;;;;;;5093813;28;20028;-65
2021/04/25 06:18:14;;;;;;;3.65;3.10;;;14.70;40.80;;;;;;5094822;28;20473;-65
2021/04/25 06:20:40;;;;;;;4.30;3.17;;;14.60;41.00;;;;;;5094913;28;20100;-65
2021/04/25 06:23:05;;;;;;;6.68;3.38;;;14.40;41.20;;;;;;5092574;28;20024;-65
2021/04/25 06:25:31;;;;;;;4.00;3.13;;;14.20;41.10;;;;;;5093728;28;20464;-65
2021/04/25 06:27:57;;;;;;;4.80;3.17;;;14.10;41.40;;;;;;5093785;28;20437;-64
2021/04/25 06:30:23;;;;;;;6.50;3.42;;;14.10;41.70;;;;;;5088858;28;20077;-65
2021/04/25 06:32:49;;;;;;;4.97;3.28;;;14.00;41.70;;;;;;5089281;28;20032;-65
2021/04/25 06:35:15;;;;;;;5.30;2.95;;;14.00;42.10;;;;;;5092550;28;20024;-64
2021/04/25 06:37:44;;;;;;;5.78;3.30;;;14.10;42.10;;;;;;5082431;28;20085;-65
2021/04/25 06:40:11;;;;;;;4.05;3.13;;;14.10;42.00;;;;;;5092990;28;20024;-64
2021/04/25 06:42:40;;;;;;;4.07;3.13;;;14.10;42.00;;;;;;5093787;28;20034;-64
2021/04/25 06:45:14;;;;;;;4.85;3.30;;;14.10;42.10;;;;;;5091759;28;20416;-65
2021/04/25 06:47:39;;;;;;;5.47;3.35;;;14.10;42.20;;;;;;5091781;28;20028;-65
2021/04/25 06:50:08;;;;;;;4.65;3.10;;;14.00;42.10;;;;;;5093315;28;20502;-65
2021/04/25 06:52:34;;;;;;;4.88;3.22;;;14.00;42.20;;;;;;5093606;28;20054;-65
2021/04/25 06:55:00;;;;;;;4.22;3.20;;;14.00;42.60;;;;;;5090484;28;20035;-65
2021/04/25 06:57:27;;;;;;;5.63;3.35;;;14.00;43.00;;;;;;5091034;28;20357;-65
2021/04/25 06:59:53;;;;;;;6.10;3.33;;;14.10;43.60;;;;;;5090964;28;20101;-65
2021/04/25 07:02:19;;;;;;;5.55;3.55;;;14.20;42.90;;;;;;5071574;28;20039;-65
2021/04/25 07:04:45;;;;;;;4.97;3.47;;;14.30;42.80;;;;;;5092561;28;20020;-65
2021/04/25 07:07:11;;;;;;;5.28;2.97;;;14.40;42.80;;;;;;5092733;28;20168;-65
2021/04/25 07:09:37;;;;;;;6.53;2.97;;;14.40;42.60;;;;;;5092855;28;20111;-65
2021/04/25 07:12:02;;;;;;;5.30;3.08;;;14.60;42.60;;;;;;5091234;28;20173;-64
2021/04/25 07:14:28;;;;;;;4.25;3.28;;;14.60;42.40;;;;;;5091658;28;20345;-65
2021/04/25 07:16:54;;;;;;;5.35;3.38;;;14.60;42.30;;;;;;5080079;28;20032;-64
2021/04/25 07:19:19;;;;;;;4.15;3.22;;;14.60;42.40;;;;;;5081809;28;20093;-64
2021/04/25 07:21:45;;;;;;;5.22;3.35;;;14.70;42.30;;;;;;5073100;28;20027;-65
2021/04/25 07:24:11;;;;;;;4.80;3.13;;;14.70;42.00;;;;;;5087431;28;20108;-65
2021/04/25 07:26:36;;;;;;;4.88;3.22;;;14.70;41.90;;;;;;5072940;28;20448;-65
2021/04/25 07:29:03;;;;;;;3.92;3.35;;;14.80;41.90;;;;;;5090611;28;20046;-65
2021/04/25 07:31:28;;;;;;;4.53;3.03;;;14.80;42.10;;;;;;5093543;28;20059;-65
2021/04/25 07:33:54;;;;;;;6.97;3.55;;;14.90;42.50;;;;;;5093321;28;20371;-65
2021/04/25 07:36:20;;;;;;;5.53;3.75;;;15.10;42.30;;;;;;5092492;28;20525;-65
2021/04/25 07:38:45;;;;;;;4.20;3.40;;;15.20;41.90;;;;;;5093324;28;20024;-65
2021/04/25 07:41:12;;;;;;;5.72;3.50;;;15.20;41.80;;;;;;5093413;28;20024;-65
2021/04/25 07:43:38;;;;;;;5.32;3.10;;;15.20;41.90;;;;;;5093332;28;20020;-64
2021/04/25 07:46:04;;;;;;;6.13;3.85;;;15.20;41.50;;;;;;5092429;28;20512;-65
2021/04/25 07:48:30;;;;;;;4.97;3.38;;;15.20;41.50;;;;;;5093395;28;20028;-64
2021/04/25 07:50:56;;;;;;;5.03;3.25;;;15.10;41.60;;;;;;5092087;28;20726;-65
2021/04/25 07:53:22;;;;;;;5.70;3.55;;;15.10;41.90;;;;;;5088633;28;20047;-64
2021/04/25 07:55:48;;;;;;;12.38;3.53;;;15.10;41.80;;;;;;5086419;28;20020;-64
2021/04/25 07:58:14;;;;;;;4.88;3.03;;;15.20;42.00;;;;;;5093386;28;20409;-65
2021/04/25 08:00:39;;;;;;;6.00;3.10;;;15.20;42.00;;;;;;5093134;28;20552;-65
2021/04/25 08:03:05;;;;;;;6.85;4.35;;;15.30;42.40;;;;;;5092094;28;20031;-65
2021/04/25 08:05:32;;;;;;;6.97;3.75;;;15.30;41.30;;;;;;5092897;28;20032;-65
2021/04/25 08:07:58;;;;;;;7.00;3.67;;;15.30;41.30;;;;;;5092970;28;20028;-65
2021/04/25 08:10:23;;;;;;;4.40;3.35;;;15.30;40.90;;;;;;5092910;28;20031;-65
2021/04/25 08:12:49;;;;;;;5.40;3.47;;;15.20;41.00;;;;;;5092960;28;20027;-65
2021/04/25 08:15:15;;;;;;;6.63;3.50;;;15.20;41.10;;;;;;5091909;28;20035;-65
2021/04/25 08:17:40;;;;;;;5.00;3.92;;;15.10;41.00;;;;;;5093017;28;20031;-64
2021/04/25 08:20:07;;;;;;;6.57;4.38;;;15.00;41.20;;;;;;5092778;28;20024;-64
2021/04/25 08:22:33;;;;;;;7.25;4.70;;;15.00;41.30;;;;;;5093097;28;20707;-64
2021/04/25 08:25:00;;;;;;;5.45;3.40;;;15.00;41.30;;;;;;5081986;28;20020;-64
2021/04/25 08:27:26;;;;;;;3.80;3.40;;;15.10;41.50;;;;;;5092104;28;20024;-64
2021/04/25 08:29:52;;;;;;;4.85;3.28;;;15.10;41.40;;;;;;5092814;28;20459;-64
2021/04/25 08:32:17;;;;;;;5.72;3.53;;;15.20;41.60;;;;;;5092755;28;20027;-64
2021/04/25 08:34:43;;;;;;;4.80;3.28;;;15.20;41.00;;;;;;5091659;28;20020;-64
2021/04/25 08:37:09;;;;;;;3.88;2.88;;;15.20;40.60;;;;;;5096279;28;20063;-64
2021/04/25 08:39:34;;;;;;;5.18;3.33;;;15.10;40.00;;;;;;5095957;28;20098;-64
2021/04/25 08:42:00;;;;;;;12.05;3.92;;;15.00;40.10;;;;;;5095582;28;20031;-64
2021/04/25 08:44:26;;;;;;;5.57;3.75;;;14.90;39.80;;;;;;5096718;28;20020;-64
2021/04/25 08:46:53;;;;;;;6.53;3.50;;;14.70;40.00;;;;;;5096776;28;20112;-64
2021/04/25 08:49:24;;;;;;;4.63;3.35;;;14.60;40.40;;;;;;5096559;28;20055;-64
2021/04/25 08:51:52;;;;;;;4.65;3.20;;;14.60;40.20;;;;;;5095722;28;20036;-64
2021/04/25 08:54:25;;;;;;;4.82;3.20;;;14.60;40.10;;;;;;5088879;28;20111;-64
2021/04/25 08:56:52;;;;;;;5.32;3.38;;;14.60;40.20;;;;;;5091986;28;20041;-64
2021/04/25 08:59:17;;;;;;;6.93;3.90;;;14.60;40.50;;;;;;5096824;28;20016;-64
2021/04/25 09:01:43;;;;;;;4.97;3.17;;;14.60;40.60;;;;;;5095850;28;20533;-64
2021/04/25 09:04:09;;;;;;;5.35;3.42;;;14.70;40.70;;;;;;5096373;28;20028;-64
2021/04/25 09:06:35;;;;;;;7.03;3.42;;;14.80;40.80;;;;;;5078385;28;20039;-64
2021/04/25 09:09:06;;;;;;;5.88;3.38;;;14.90;40.70;;;;;;5096359;28;20020;-64
2021/04/25 09:11:39;;;;;;;5.53;3.63;;;14.90;40.50;;;;;;5083433;28;20028;-64
2021/04/25 09:14:21;;;;;;;8.35;3.97;;;14.90;40.30;;;;;;5096295;28;20031;-64
2021/04/25 09:17:01;;;;;;;4.55;3.28;;;14.80;40.70;;;;;;5096195;28;20023;-64
2021/04/25 09:20:04;;;;;;;5.80;3.53;;;14.80;40.70;;;;;;5094991;28;20035;-64
2021/04/25 09:22:45;;;;;;;5.30;3.70;;;14.80;40.80;;;;;;5095949;28;20035;-64
2021/04/25 09:25:17;;;;;;;4.82;3.05;;;14.90;41.30;;;;;;5087844;28;20047;-64
2021/04/25 09:27:45;;;;;;;4.88;3.33;;;15.00;40.80;;;;;;5095146;28;20040;-64
2021/04/25 09:30:11;;;;;;;4.38;3.30;;;15.10;41.00;;;;;;5089923;28;20045;-64
2021/04/25 09:32:38;;;;;;;7.32;3.78;;;15.20;40.60;;;;;;5093918;28;20376;-64
2021/04/25 09:35:22;;;;;;;6.15;3.60;;;15.20;40.50;;;;;;5095893;28;20024;-64
2021/04/25 09:37:49;;;;;;;5.47;3.50;;;15.20;40.20;;;;;;5095145;28;20028;-64
2021/04/25 09:40:21;;;;;;;7.20;3.67;;;15.10;40.30;;;;;;5077385;28;20020;-64
2021/04/25 09:43:06;;;;;;;5.60;3.50;;;15.00;40.50;;;;;;5095896;28;20024;-64
2021/04/25 09:45:50;;;;;;;5.82;3.70;;;14.90;40.40;;;;;;5095696;28;20024;-64
2021/04/25 09:48:24;;;;;;;4.75;3.65;;;14.80;40.60;;;;;;5093429;28;20077;-64
2021/04/25 09:51:16;;;;;;;5.00;3.65;;;14.80;40.90;;;;;;5095401;28;20051;-64
2021/04/25 09:53:57;;;;;;;4.82;3.42;;;14.80;41.00;;;;;;5095472;28;20031;-64
2021/04/25 09:56:46;;;;;;;5.63;3.92;;;14.90;41.00;;;;;;5095334;28;20031;-64
2021/04/25 09:59:11;;;;;;;5.15;3.30;;;15.00;40.90;;;;;;5094277;28;20498;-64
2021/04/25 10:01:42;;;;;;;5.63;3.45;;;15.00;40.80;;;;;;5086409;28;20028;-64
2021/04/25 10:04:28;;;;;;;4.32;3.70;;;15.10;40.50;;;;;;5091048;28;20384;-64
2021/04/25 10:06:55;;;;;;;5.30;3.78;;;15.10;40.50;;;;;;5081273;28;20020;-64
2021/04/25 10:09:21;;;;;;;4.68;3.50;;;15.10;40.50;;;;;;5093774;28;20035;-64
2021/04/25 10:11:52;;;;;;;5.05;3.83;;;15.10;40.40;;;;;;5094776;28;20020;-64
2021/04/25 10:14:18;;;;;;;5.72;3.58;;;15.10;40.10;;;;;;5094921;28;20027;-64
2021/04/25 10:16:44;;;;;;;6.18;4.00;;;15.00;40.00;;;;;;5094764;28;20111;-64
2021/04/25 10:19:11;;;;;;;3.80;3.10;;;15.00;39.80;;;;;;5085497;28;20028;-64
2021/04/25 10:21:37;;;;;;;5.30;3.50;;;15.00;39.90;;;;;;5094975;28;20020;-64
2021/04/25 10:24:04;;;;;;;6.55;3.80;;;15.10;39.90;;;;;;5088708;28;20550;-64
2021/04/25 10:26:34;;;;;;;5.78;3.58;;;15.10;39.80;;;;;;5093739;28;20073;-65
2021/04/25 10:29:09;;;;;;;5.45;3.65;;;15.20;39.90;;;;;;5095078;28;20358;-65
2021/04/25 10:31:36;;;;;;;5.50;3.55;;;15.20;39.70;;;;;;5094786;28;20490;-65
2021/04/25 10:34:07;;;;;;;7.25;3.83;;;15.30;39.70;;;;;;5094399;28;20448;-65
2021/04/25 10:36:44;;;;;;;5.83;3.23;;;15.30;39.70;;;;;;5092888;28;20058;-65
2021/04/25 10:39:51;;;;;;;5.30;4.00;;;15.30;39.40;;;;;;5081915;28;20025;-65
2021/04/25 10:42:17;;;;;;;5.15;3.50;;;15.40;39.60;;;;;;5094209;28;20028;-65
2021/04/25 10:45:04;;;;;;;4.55;3.53;;;15.30;39.60;;;;;;5093288;28;20056;-65
2021/04/25 10:47:39;;;;;;;4.22;3.38;;;15.20;39.60;;;;;;5094374;28;20036;-65
2021/04/25 10:50:17;;;;;;;5.53;3.55;;;15.20;39.80;;;;;;5094175;28;20086;-65
2021/04/25 10:52:47;;;;;;;6.47;3.53;;;15.20;40.00;;;;;;5094073;28;20075;-65
2021/04/25 10:55:24;;;;;;;4.65;3.70;;;15.20;39.90;;;;;;5091889;28;20031;-65
2021/04/25 10:58:07;;;;;;;4.97;3.55;;;15.20;40.00;;;;;;5092595;28;20024;-65
2021/04/25 11:00:33;;;;;;;4.85;3.35;;;15.20;39.90;;;;;;5094088;28;20032;-65
2021/04/25 11:03:01;;;;;;;4.95;3.30;;;15.30;39.90;;;;;;5094143;28;20070;-65
2021/04/25 11:05:39;;;;;;;5.65;3.70;;;15.30;40.10;;;;;;5092630;28;20495;-65
2021/04/25 11:08:06;;;;;;;3.90;3.30;;;15.40;39.90;;;;;;5088508;28;20024;-65
2021/04/25 11:10:51;;;;;;;4.65;3.60;;;15.40;39.80;;;;;;5080098;28;20062;-65
2021/04/25 11:13:36;;;;;;;6.20;3.80;;;15.50;39.50;;;;;;5073998;28;20090;-65
2021/04/25 11:16:07;;;;;;;4.95;3.50;;;15.40;39.50;;;;;;5087693;28;20025;-65
2021/04/25 11:18:53;;;;;;;4.05;3.22;;;15.40;39.80;;;;;;5085472;28;20024;-65
2021/04/25 11:21:34;;;;;;;5.38;3.75;;;15.50;39.40;;;;;;5081671;28;20093;-65
2021/04/25 11:24:03;;;;;;;;;;;15.40;39.70;;;;;;5086632;28;20387;-65
2021/04/25 11:26:41;;;;;;;4.00;2.90;;;15.40;39.60;;;;;;5086406;28;20014;-65
2021/04/25 11:29:11;;;;;;;4.13;3.00;;;15.40;39.60;;;;;;5094423;28;20012;-65
2021/04/25 11:31:52;;;;;;;3.73;3.00;;;15.40;39.40;;;;;;5089419;28;20028;-65
2021/04/25 11:34:27;;;;;;;4.55;3.20;;;15.40;39.40;;;;;;5087735;28;20089;-65
2021/04/25 11:37:08;;;;;;;5.18;3.20;;;15.40;39.50;;;;;;5085923;28;20027;-65
2021/04/25 11:39:45;;;;;;;;;;;15.30;39.50;;;;;;5077737;28;20076;-65
2021/04/25 11:42:13;;;;;;;4.13;3.05;;;15.20;39.60;;;;;;5090272;28;19908;-65
2021/04/25 11:44:46;;;;;;;4.75;3.20;;;15.30;39.60;;;;;;5088850;28;20391;-65
2021/04/25 11:47:14;;;;;;;4.38;2.80;;;15.30;39.60;;;;;;5093479;28;20031;-65
2021/04/25 11:49:45;;;;;;;6.82;3.53;;;15.40;39.30;;;;;;5088724;28;20040;-65
2021/04/25 11:52:18;;;;;;;4.57;3.30;;;15.40;38.90;;;;;;5092253;28;20044;-65
2021/04/25 11:54:46;;;;;;;6.47;3.30;;;15.50;38.80;;;;;;5079432;28;20150;-65
2021/04/25 11:57:20;;;;;;;7.18;3.10;;;15.60;38.90;;;;;;5091196;28;20070;-65
2021/04/25 12:00:08;;;;;;;5.75;3.40;;;15.60;39.00;;;;;;5091529;28;20472;-65
2021/04/25 12:02:45;;;;;;;3.80;2.92;;;15.60;39.00;;;;;;5072865;28;20131;-65
2021/04/25 12:05:13;;;;;;;5.70;3.40;;;15.60;38.80;;;;;;5092478;28;20103;-65
2021/04/25 12:07:39;;;;;;;4.70;3.38;;;15.60;38.90;;;;;;5092968;28;20119;-65
2021/04/25 12:10:23;;;;;;;4.03;3.15;;;15.60;39.10;;;;;;5092215;28;20070;-65
2021/04/25 12:12:56;;;;;;;4.18;3.42;;;15.60;38.60;;;;;;5082802;28;20020;-65
2021/04/25 12:15:23;;;;;;;4.20;3.05;;;15.60;39.10;;;;;;5087573;28;20019;-65
2021/04/25 12:17:56;;;;;;;5.78;3.40;;;15.50;38.90;;;;;;5065264;28;20025;-65
2021/04/25 12:20:23;;;;;;;6.57;3.53;;;15.50;38.60;;;;;;5091804;28;20040;-65
2021/04/25 12:22:49;;;;;;;6.00;3.42;;;15.40;38.90;;;;;;5085530;28;20024;-65
2021/04/25 12:25:16;;;;;;;5.15;2.85;;;15.40;39.10;;;;;;5078488;28;20023;-65
2021/04/25 12:27:49;;;;;;;4.88;3.03;;;15.30;39.30;;;;;;5086167;28;20049;-65
2021/04/25 12:30:18;;;;;;;5.78;4.03;;;15.20;39.60;;;;;;5092929;28;20061;-65
2021/04/25 12:32:43;;;;;;;4.85;3.13;;;15.10;40.10;;;;;;5092911;28;20024;-65
2021/04/25 12:35:09;;;;;;;3.80;3.10;;;14.90;40.60;;;;;;5092155;28;20066;-65
2021/04/25 12:37:43;;;;;;;3.88;3.25;;;14.80;41.20;;;;;;5080866;28;20059;-65
2021/04/25 12:40:30;;;;;;;4.40;3.20;;;14.80;41.70;;;;;;5091758;28;20427;-65
2021/04/25 12:43:13;;;;;;;3.80;3.22;;;14.90;41.50;;;;;;5086424;28;20052;-65
2021/04/25 12:45:41;;;;;;;5.38;3.10;;;14.90;41.80;;;;;;5083729;28;20020;-65
2021/04/25 12:48:43;;;;;;;3.53;3.05;;;15.00;42.00;;;;;;5086169;28;20028;-65
2021/04/25 12:51:51;;;;;;;4.38;3.10;;;15.00;41.80;;;;;;5028889;28;20113;-65
2021/04/25 12:54:19;;;;;;;5.05;3.70;;;14.90;41.80;;;;;;5007041;28;20092;-65
2021/04/25 12:56:52;;;;;;;4.28;2.63;;;14.80;41.70;;;;;;5067019;28;20526;-65